• Join FlightAware (Why Join?)
  • Login
  • US Flag 
12:53AM EDT


 

Airport Tracker/Info


-or-


 

Live Flight TrackerFlight Track Log ✈ TPA724 ✈ 29-Apr-2013 ✈ SKRG / MDE - KMIA

Flight Track Log - Related Links

Times and Time Zones

All times are in EDT time to prevent confusion due to time zone crossing. See the TPA724 flight status page for this flight to view local times or setup timezone preferences in your user account.

Time Position Orientation Groundspeed Altitude Reporting Facility
EDT Latitude Longitude Course Direction KTS MPH feet Rate Location/Type
01:05AM 9.8500 -76.0670 351° North 486 559 40,000  Level FlightAware
01:06AM 9.9260 -76.0790 351° North 486 559 40,000  Level FlightAware
01:08AM 10.2070 -76.1230 351° North 485 558 40,000  Level FlightAware
01:09AM 10.3290 -76.1410 352° North 488 562 40,000  Level FlightAware
01:10AM 10.4300 -76.1570 351° North 489 563 40,000  Level FlightAware
01:10AM 10.5270 -76.1720 351° North 491 565 40,000  Level FlightAware
01:11AM 10.6090 -76.1850 351° North 488 562 40,000  Level FlightAware
01:12AM 10.7020 -76.2000 351° North 488 562 40,000  Level FlightAware
01:12AM 10.8110 -76.2160 352° North 491 565 40,000  Level FlightAware
01:13AM 10.9060 -76.2310 351° North 484 557 40,000  Level FlightAware
01:14AM 11.0320 -76.2510 351° North 485 558 40,000  Level FlightAware
01:15AM 11.1520 -76.2700 351° North 485 558 40,000  Level FlightAware
01:16AM 11.2280 -76.2820 351° North 485 558 40,000  Level FlightAware
01:16AM 11.3030 -76.2940 351° North 485 558 40,000  Level FlightAware
01:19AM 11.6738 -76.3787 347° North  Level FlightAware Approximate
01:20AM 11.8411 -76.4170 347° North  Level FlightAware Approximate
01:21AM 12.0083 -76.4553 347° North  Level FlightAware Approximate
01:22AM 12.1756 -76.4937 347° North  Level FlightAware Approximate
01:23AM 12.3428 -76.5322 347° North  Level FlightAware Approximate
01:24AM 12.5101 -76.5706 347° North  Level FlightAware Approximate
01:25AM 12.6773 -76.6092 347° North  Level FlightAware Approximate
01:26AM 12.8446 -76.6477 347° North  Level FlightAware Approximate
01:27AM 13.0118 -76.6864 347° North  Level FlightAware Approximate
01:28AM 13.1790 -76.7251 347° North  Level FlightAware Approximate
01:29AM 13.3462 -76.7638 347° North  Level FlightAware Approximate
01:30AM 13.5134 -76.8026 347° North  Level FlightAware Approximate
01:31AM 13.6806 -76.8414 347° North  Level FlightAware Approximate
01:32AM 13.8478 -76.8803 347° North  Level FlightAware Approximate
01:33AM 14.0150 -76.9193 347° North  Level FlightAware Approximate
01:34AM 14.1822 -76.9583 347° North  Level FlightAware Approximate
01:35AM 14.3494 -76.9974 347° North  Level FlightAware Approximate
01:36AM 14.5166 -77.0365 347° North  Level FlightAware Approximate
01:37AM 14.6837 -77.0757 347° North  Level FlightAware Approximate
01:38AM 14.8509 -77.1149 347° North  Level FlightAware Approximate
01:39AM 15.0194 -77.1539 349° North  Level FlightAware Approximate
01:40AM 15.1876 -77.1882 349° North  Level FlightAware Approximate
01:41AM 15.3558 -77.2225 349° North  Level FlightAware Approximate
01:42AM 15.5240 -77.2568 349° North  Level FlightAware Approximate
01:43AM 15.6922 -77.2912 349° North  Level FlightAware Approximate
01:44AM 15.8604 -77.3256 349° North  Level FlightAware Approximate
01:45AM 16.0286 -77.3598 349° North  Level FlightAware Approximate
01:46AM 16.1968 -77.3942 349° North  Level FlightAware Approximate
01:47AM 16.3650 -77.4286 349° North  Level FlightAware Approximate
01:48AM 16.5332 -77.4630 349° North  Level FlightAware Approximate
01:49AM 16.7014 -77.4976 349° North  Level FlightAware Approximate
01:50AM 16.8696 -77.5321 349° North  Level FlightAware Approximate
01:51AM 17.0378 -77.5668 349° North  Level FlightAware Approximate
01:52AM 17.2059 -77.6015 349° North  Level FlightAware Approximate
01:53AM 17.3741 -77.6362 349° North  Level FlightAware Approximate
01:54AM 17.5423 -77.6711 349° North  Level FlightAware Approximate
01:55AM 17.7104 -77.7060 349° North  Level FlightAware Approximate
01:56AM 17.8786 -77.7409 349° North  Level FlightAware Approximate
01:57AM 18.0467 -77.7759 349° North  Level FlightAware Approximate
01:58AM 18.2149 -77.8110 349° North  Level FlightAware Approximate
01:59AM 18.3830 -77.8462 349° North  Level FlightAware Approximate
02:00AM 18.5511 -77.8814 349° North  Level FlightAware Approximate
02:01AM 18.7193 -77.9167 349° North  Level FlightAware Approximate
02:02AM 18.8874 -77.9521 349° North  Level FlightAware Approximate
02:03AM 19.0555 -77.9875 349° North  Level FlightAware Approximate
02:04AM 19.2236 -78.0230 349° North  Level FlightAware Approximate
02:05AM 19.3917 -78.0586 349° North  Level FlightAware Approximate
02:06AM 19.5598 -78.0943 349° North  Level FlightAware Approximate
02:07AM 19.7278 -78.1300 349° North  Level FlightAware Approximate
02:08AM 19.8959 -78.1658 349° North  Level FlightAware Approximate
02:09AM 20.0640 -78.2017 349° North  Level FlightAware Approximate
02:10AM 20.2320 -78.2377 349° North  Level FlightAware Approximate
02:11AM 20.4001 -78.2737 349° North  Level FlightAware Approximate
02:12AM 20.5681 -78.3098 349° North  Level FlightAware Approximate
02:13AM 20.7362 -78.3460 349° North  Level FlightAware Approximate
02:14AM 20.9042 -78.3823 349° North  Level FlightAware Approximate
02:15AM 21.0722 -78.4187 349° North  Level FlightAware Approximate
02:16AM 21.2402 -78.4551 349° North  Level FlightAware Approximate
02:17AM 21.4082 -78.4917 349° North  Level FlightAware Approximate
02:18AM 21.5762 -78.5283 349° North  Level FlightAware Approximate
02:19AM 21.7442 -78.5650 349° North  Level FlightAware Approximate
02:20AM 21.9122 -78.6018 349° North  Level FlightAware Approximate
02:21AM 22.0802 -78.6386 349° North  Level FlightAware Approximate
02:22AM 22.2481 -78.6756 348° North  Level FlightAware Approximate
02:23AM 22.4161 -78.7126 348° North  Level FlightAware Approximate
02:24AM 22.5840 -78.7498 348° North  Level FlightAware Approximate
02:25AM 22.7520 -78.7870 348° North  Level FlightAware Approximate
02:26AM 22.9199 -78.8243 348° North  Level FlightAware Approximate
02:27AM 23.0878 -78.8617 348° North  Level FlightAware Approximate
02:28AM 23.2557 -78.8992 348° North  Level FlightAware Approximate
02:29AM 23.4236 -78.9368 348° North  Level FlightAware Approximate
02:30AM 23.5915 -78.9745 348° North  Level FlightAware Approximate
02:31AM 23.7594 -79.0123 348° North  Level FlightAware Approximate
02:32AM 23.9273 -79.0502 348° North  Level FlightAware Approximate
02:33AM 24.0966 -79.0757 353° North  Level FlightAware Approximate
02:34AM 24.2662 -79.1000 North  Level FlightAware Approximate
02:35AM 24.4354 -79.1214 347° North  Level FlightAware Approximate
02:36AM 24.6049 -79.1459 353° North  Level FlightAware Approximate
02:37AM 24.7751 -79.1667 North  Level FlightAware Approximate
02:38AM 24.9409 -79.1939 308° West  Level FlightAware Approximate
02:39AM 25.0530 -79.3363 318° Northwest  Level FlightAware Approximate
02:40AM 25.1769 -79.4668 312° West  Level FlightAware Approximate
02:41AM 25.2904 -79.6087 312° West  Level FlightAware Approximate
02:42AM 25.4050 -79.7492 306° West  Level FlightAware Approximate
02:43AM 25.5069 -79.9019 306° West  Level FlightAware Approximate
02:44AM 25.6062 -80.0567 302° West  Level FlightAware Approximate
02:45AM 25.7099 -80.2066 307° West  Level FlightAware Approximate
02:46AM 25.7833 -80.2983 90° East  Level FlightAware Approximate
02:47AM 25.7833 -80.2833 90° East  Level FlightAware Approximate
02:48AM 25.7954 -80.2901 90° East  Level Estimated
02:49AM 25.7954 -80.2901 90° East  Level Estimated
02:50AM 25.7954 -80.2901 90° East  Level Estimated